sensor_id;sensor_type;location;lat;lon;timestamp;temperature;humidity
15143;DHT22;7672;50.834;6.286;2023-05-15T00:02:24;17.80;99.90
15143;DHT22;7672;50.834;6.286;2023-05-15T00:09:41;18.00;99.90
15143;DHT22;7672;50.834;6.286;2023-05-15T00:12:08;18.00;99.90
15143;DHT22;7672;50.834;6.286;2023-05-15T00:14:35;18.00;99.90
15143;DHT22;7672;50.834;6.286;2023-05-15T00:17:02;18.00;99.90
15143;DHT22;7672;50.834;6.286;2023-05-15T00:19:29;18.30;99.90
15143;DHT22;7672;50.834;6.286;2023-05-15T00:21:56;17.90;99.90
15143;DHT22;7672;50.834;6.286;2023-05-15T00:24:23;17.90;99.90
15143;DHT22;7672;50.834;6.286;2023-05-15T00:26:50;17.90;99.90
15143;DHT22;7672;50.834;6.286;2023-05-15T00:29:17;17.90;99.90
15143;DHT22;7672;50.834;6.286;2023-05-15T00:31:44;18.00;99.90
15143;DHT22;7672;50.834;6.286;2023-05-15T00:34:11;17.90;99.90
15143;DHT22;7672;50.834;6.286;2023-05-15T00:36:38;18.30;99.90
15143;DHT22;7672;50.834;6.286;2023-05-15T00:39:05;17.90;99.90
15143;DHT22;7672;50.834;6.286;2023-05-15T00:41:32;17.90;99.90
15143;DHT22;7672;50.834;6.286;2023-05-15T00:44:02;17.90;99.90
15143;DHT22;7672;50.834;6.286;2023-05-15T00:46:31;17.90;99.90
15143;DHT22;7672;50.834;6.286;2023-05-15T00:49:02;17.90;99.90
15143;DHT22;7672;50.834;6.286;2023-05-15T00:51:31;18.00;99.90
15143;DHT22;7672;50.834;6.286;2023-05-15T00:53:58;17.90;99.90
15143;DHT22;7672;50.834;6.286;2023-05-15T00:56:26;17.90;99.90
15143;DHT22;7672;50.834;6.286;2023-05-15T00:58:56;17.80;99.90
15143;DHT22;7672;50.834;6.286;2023-05-15T01:01:25;17.80;99.90
15143;DHT22;7672;50.834;6.286;2023-05-15T01:03:52;17.80;99.90
15143;DHT22;7672;50.834;6.286;2023-05-15T01:06:19;17.70;99.90
15143;DHT22;7672;50.834;6.286;2023-05-15T01:08:47;17.90;99.90
15143;DHT22;7672;50.834;6.286;2023-05-15T01:11:16;17.90;99.90
15143;DHT22;7672;50.834;6.286;2023-05-15T01:13:44;17.70;99.90
15143;DHT22;7672;50.834;6.286;2023-05-15T01:16:11;17.50;99.90
15143;DHT22;7672;50.834;6.286;2023-05-15T01:18:38;17.60;99.90
15143;DHT22;7672;50.834;6.286;2023-05-15T01:21:26;17.50;99.90
15143;DHT22;7672;50.834;6.286;2023-05-15T01:24:03;17.50;99.90
15143;DHT22;7672;50.834;6.286;2023-05-15T01:30:14;17.40;99.90
15143;DHT22;7672;50.834;6.286;2023-05-15T01:32:58;17.30;99.90
15143;DHT22;7672;50.834;6.286;2023-05-15T01:35:43;17.30;99.90
15143;DHT22;7672;50.834;6.286;2023-05-15T01:38:36;17.20;99.90
15143;DHT22;7672;50.834;6.286;2023-05-15T01:41:21;17.10;99.90
15143;DHT22;7672;50.834;6.286;2023-05-15T01:46:50;17.10;99.90
15143;DHT22;7672;50.834;6.286;2023-05-15T01:49:23;17.00;99.90
15143;DHT22;7672;50.834;6.286;2023-05-15T01:52:19;17.00;99.90
15143;DHT22;7672;50.834;6.286;2023-05-15T01:54:47;16.90;99.90
15143;DHT22;7672;50.834;6.286;2023-05-15T01:57:16;16.90;99.90
15143;DHT22;7672;50.834;6.286;2023-05-15T01:59:45;16.80;99.90
15143;DHT22;7672;50.834;6.286;2023-05-15T02:02:14;16.80;99.90
15143;DHT22;7672;50.834;6.286;2023-05-15T02:04:43;16.80;99.90
15143;DHT22;7672;50.834;6.286;2023-05-15T02:07:12;16.70;99.90
15143;DHT22;7672;50.834;6.286;2023-05-15T02:09:40;16.70;99.90
15143;DHT22;7672;50.834;6.286;2023-05-15T02:12:09;16.80;99.90
15143;DHT22;7672;50.834;6.286;2023-05-15T02:14:37;16.60;99.90
15143;DHT22;7672;50.834;6.286;2023-05-15T02:17:06;16.60;99.90
15143;DHT22;7672;50.834;6.286;2023-05-15T02:19:33;16.60;99.90
15143;DHT22;7672;50.834;6.286;2023-05-15T02:22:04;16.60;99.90
15143;DHT22;7672;50.834;6.286;2023-05-15T02:24:32;16.60;99.90
15143;DHT22;7672;50.834;6.286;2023-05-15T02:27:21;16.60;99.90
15143;DHT22;7672;50.834;6.286;2023-05-15T02:36:19;16.50;99.90
15143;DHT22;7672;50.834;6.286;2023-05-15T02:38:54;16.50;99.90
15143;DHT22;7672;50.834;6.286;2023-05-15T02:41:23;16.50;99.90
15143;DHT22;7672;50.834;6.286;2023-05-15T02:43:51;16.50;99.90
15143;DHT22;7672;50.834;6.286;2023-05-15T02:46:21;16.40;99.90
15143;DHT22;7672;50.834;6.286;2023-05-15T02:48:52;16.40;99.90
15143;DHT22;7672;50.834;6.286;2023-05-15T02:51:20;16.40;99.90
15143;DHT22;7672;50.834;6.286;2023-05-15T02:53:48;16.40;99.90
15143;DHT22;7672;50.834;6.286;2023-05-15T02:56:15;16.40;99.90
15143;DHT22;7672;50.834;6.286;2023-05-15T02:58:42;16.40;99.90
15143;DHT22;7672;50.834;6.286;2023-05-15T03:01:09;16.40;99.90
15143;DHT22;7672;50.834;6.286;2023-05-15T03:03:36;16.30;99.90
15143;DHT22;7672;50.834;6.286;2023-05-15T03:06:03;16.30;99.90
15143;DHT22;7672;50.834;6.286;2023-05-15T03:08:30;16.30;99.90
15143;DHT22;7672;50.834;6.286;2023-05-15T03:10:57;16.30;99.90
15143;DHT22;7672;50.834;6.286;2023-05-15T03:13:24;16.30;99.90
15143;DHT22;7672;50.834;6.286;2023-05-15T03:15:51;16.30;99.90
15143;DHT22;7672;50.834;6.286;2023-05-15T03:18:19;16.20;99.90
15143;DHT22;7672;50.834;6.286;2023-05-15T03:20:47;16.30;99.90
15143;DHT22;7672;50.834;6.286;2023-05-15T03:23:15;16.20;99.90
15143;DHT22;7672;50.834;6.286;2023-05-15T03:25:42;16.20;99.90
15143;DHT22;7672;50.834;6.286;2023-05-15T03:28:09;16.20;99.90
15143;DHT22;7672;50.834;6.286;2023-05-15T03:30:37;16.20;99.90
15143;DHT22;7672;50.834;6.286;2023-05-15T03:33:04;16.20;99.90
15143;DHT22;7672;50.834;6.286;2023-05-15T03:35:32;16.20;99.90
15143;DHT22;7672;50.834;6.286;2023-05-15T03:37:59;16.20;99.90
15143;DHT22;7672;50.834;6.286;2023-05-15T03:40:26;16.20;99.90
15143;DHT22;7672;50.834;6.286;2023-05-15T03:42:53;16.10;99.90
15143;DHT22;7672;50.834;6.286;2023-05-15T03:45:20;16.20;99.90
15143;DHT22;7672;50.834;6.286;2023-05-15T03:47:47;16.10;99.90
15143;DHT22;7672;50.834;6.286;2023-05-15T03:50:15;16.10;99.90
15143;DHT22;7672;50.834;6.286;2023-05-15T03:52:42;16.10;99.90
15143;DHT22;7672;50.834;6.286;2023-05-15T03:55:09;16.10;99.90
15143;DHT22;7672;50.834;6.286;2023-05-15T03:57:36;16.10;99.90
15143;DHT22;7672;50.834;6.286;2023-05-15T04:00:04;16.10;99.90
15143;DHT22;7672;50.834;6.286;2023-05-15T04:02:39;16.10;99.90
15143;DHT22;7672;50.834;6.286;2023-05-15T04:05:07;16.30;99.90
15143;DHT22;7672;50.834;6.286;2023-05-15T04:07:35;16.10;99.90
15143;DHT22;7672;50.834;6.286;2023-05-15T04:10:03;16.10;99.90
15143;DHT22;7672;50.834;6.286;2023-05-15T04:12:33;16.10;99.90
15143;DHT22;7672;50.834;6.286;2023-05-15T04:15:20;16.10;99.90
15143;DHT22;7672;50.834;6.286;2023-05-15T04:17:51;16.10;99.90
15143;DHT22;7672;50.834;6.286;2023-05-15T04:20:21;16.10;99.90
15143;DHT22;7672;50.834;6.286;2023-05-15T04:22:49;16.10;99.90
15143;DHT22;7672;50.834;6.286;2023-05-15T04:25:18;16.20;99.90
15143;DHT22;7672;50.834;6.286;2023-05-15T04:27:46;16.10;99.90
15143;DHT22;7672;50.834;6.286;2023-05-15T04:30:13;16.10;99.90
15143;DHT22;7672;50.834;6.286;2023-05-15T04:32:40;16.10;99.90
15143;DHT22;7672;50.834;6.286;2023-05-15T04:35:09;16.10;99.90
15143;DHT22;7672;50.834;6.286;2023-05-15T04:37:41;16.10;99.90
15143;DHT22;7672;50.834;6.286;2023-05-15T04:40:09;16.10;99.90
15143;DHT22;7672;50.834;6.286;2023-05-15T04:42:36;16.20;99.90
15143;DHT22;7672;50.834;6.286;2023-05-15T04:45:06;16.20;99.90
15143;DHT22;7672;50.834;6.286;2023-05-15T04:47:35;16.20;99.90
15143;DHT22;7672;50.834;6.286;2023-05-15T04:50:03;16.30;99.90
15143;DHT22;7672;50.834;6.286;2023-05-15T04:52:30;16.30;99.90
15143;DHT22;7672;50.834;6.286;2023-05-15T04:54:58;16.30;99.90
15143;DHT22;7672;50.834;6.286;2023-05-15T04:57:25;16.40;99.90
15143;DHT22;7672;50.834;6.286;2023-05-15T04:59:52;16.40;99.90
15143;DHT22;7672;50.834;6.286;2023-05-15T05:02:20;16.40;99.90
15143;DHT22;7672;50.834;6.286;2023-05-15T05:04:51;16.40;99.90
15143;DHT22;7672;50.834;6.286;2023-05-15T05:07:18;16.40;99.90
15143;DHT22;7672;50.834;6.286;2023-05-15T05:09:45;16.60;99.90
15143;DHT22;7672;50.834;6.286;2023-05-15T05:12:12;16.40;99.90
15143;DHT22;7672;50.834;6.286;2023-05-15T05:14:40;16.30;99.90
15143;DHT22;7672;50.834;6.286;2023-05-15T05:17:08;16.40;99.90
15143;DHT22;7672;50.834;6.286;2023-05-15T05:19:35;16.40;99.90
15143;DHT22;7672;50.834;6.286;2023-05-15T05:22:03;16.40;99.90
15143;DHT22;7672;50.834;6.286;2023-05-15T05:24:31;16.30;99.90
15143;DHT22;7672;50.834;6.286;2023-05-15T05:26:58;16.40;99.90
15143;DHT22;7672;50.834;6.286;2023-05-15T05:29:26;16.40;99.90
15143;DHT22;7672;50.834;6.286;2023-05-15T05:31:53;16.40;99.90
15143;DHT22;7672;50.834;6.286;2023-05-15T05:34:20;16.30;99.90
15143;DHT22;7672;50.834;6.286;2023-05-15T05:36:48;16.30;99.90
15143;DHT22;7672;50.834;6.286;2023-05-15T05:39:16;16.40;99.90
15143;DHT22;7672;50.834;6.286;2023-05-15T05:41:43;16.30;99.90
15143;DHT22;7672;50.834;6.286;2023-05-15T05:44:10;16.30;99.90
15143;DHT22;7672;50.834;6.286;2023-05-15T05:46:37;16.40;99.90
15143;DHT22;7672;50.834;6.286;2023-05-15T05:49:05;16.40;99.90
15143;DHT22;7672;50.834;6.286;2023-05-15T05:51:34;16.40;99.90
15143;DHT22;7672;50.834;6.286;2023-05-15T05:54:02;16.50;99.90
15143;DHT22;7672;50.834;6.286;2023-05-15T05:56:30;16.50;99.90
15143;DHT22;7672;50.834;6.286;2023-05-15T05:58:57;16.50;99.90
15143;DHT22;7672;50.834;6.286;2023-05-15T06:01:25;16.60;99.90
15143;DHT22;7672;50.834;6.286;2023-05-15T06:03:53;16.60;99.90
15143;DHT22;7672;50.834;6.286;2023-05-15T06:06:21;16.60;99.90
15143;DHT22;7672;50.834;6.286;2023-05-15T06:08:48;16.60;99.90
15143;DHT22;7672;50.834;6.286;2023-05-15T06:11:15;16.70;99.90
15143;DHT22;7672;50.834;6.286;2023-05-15T06:13:42;16.70;99.90
15143;DHT22;7672;50.834;6.286;2023-05-15T06:16:09;16.70;99.90
15143;DHT22;7672;50.834;6.286;2023-05-15T06:18:36;16.70;99.90
15143;DHT22;7672;50.834;6.286;2023-05-15T06:21:03;16.80;99.90
15143;DHT22;7672;50.834;6.286;2023-05-15T06:23:31;16.80;99.90
15143;DHT22;7672;50.834;6.286;2023-05-15T06:25:58;16.90;99.90
15143;DHT22;7672;50.834;6.286;2023-05-15T06:28:24;17.00;99.90
15143;DHT22;7672;50.834;6.286;2023-05-15T06:30:52;17.00;99.90
15143;DHT22;7672;50.834;6.286;2023-05-15T06:33:19;17.10;99.90
15143;DHT22;7672;50.834;6.286;2023-05-15T06:35:47;17.10;99.90
15143;DHT22;7672;50.834;6.286;2023-05-15T06:38:14;17.20;99.90
15143;DHT22;7672;50.834;6.286;2023-05-15T06:40:41;17.50;99.90
15143;DHT22;7672;50.834;6.286;2023-05-15T06:43:08;17.40;99.90
15143;DHT22;7672;50.834;6.286;2023-05-15T06:45:35;17.40;99.90
15143;DHT22;7672;50.834;6.286;2023-05-15T06:48:02;17.60;99.90
15143;DHT22;7672;50.834;6.286;2023-05-15T06:50:29;17.70;99.90
15143;DHT22;7672;50.834;6.286;2023-05-15T06:52:57;18.00;99.90
15143;DHT22;7672;50.834;6.286;2023-05-15T06:55:24;18.10;99.90
15143;DHT22;7672;50.834;6.286;2023-05-15T06:57:52;18.40;99.90
15143;DHT22;7672;50.834;6.286;2023-05-15T07:00:19;18.70;99.90
15143;DHT22;7672;50.834;6.286;2023-05-15T07:02:46;19.00;99.90
15143;DHT22;7672;50.834;6.286;2023-05-15T07:05:13;19.30;99.90
15143;DHT22;7672;50.834;6.286;2023-05-15T07:07:41;19.60;99.90
15143;DHT22;7672;50.834;6.286;2023-05-15T07:10:08;19.90;99.90
15143;DHT22;7672;50.834;6.286;2023-05-15T07:12:36;20.00;99.90
15143;DHT22;7672;50.834;6.286;2023-05-15T07:15:04;20.30;99.90
15143;DHT22;7672;50.834;6.286;2023-05-15T07:17:32;20.50;99.90
15143;DHT22;7672;50.834;6.286;2023-05-15T07:19:59;20.70;99.90
15143;DHT22;7672;50.834;6.286;2023-05-15T07:22:27;20.90;99.90
15143;DHT22;7672;50.834;6.286;2023-05-15T07:24:54;21.20;99.90
15143;DHT22;7672;50.834;6.286;2023-05-15T07:27:21;21.30;99.90
15143;DHT22;7672;50.834;6.286;2023-05-15T07:29:48;21.50;99.90
15143;DHT22;7672;50.834;6.286;2023-05-15T07:32:16;21.60;99.90
15143;DHT22;7672;50.834;6.286;2023-05-15T07:34:43;21.70;99.90
15143;DHT22;7672;50.834;6.286;2023-05-15T07:37:10;21.80;99.90
15143;DHT22;7672;50.834;6.286;2023-05-15T07:39:37;21.90;99.90
15143;DHT22;7672;50.834;6.286;2023-05-15T07:42:04;22.10;99.90
15143;DHT22;7672;50.834;6.286;2023-05-15T07:44:31;22.30;99.90
15143;DHT22;7672;50.834;6.286;2023-05-15T07:46:58;22.50;99.90
15143;DHT22;7672;50.834;6.286;2023-05-15T07:49:25;22.80;99.90
15143;DHT22;7672;50.834;6.286;2023-05-15T07:51:52;23.40;99.90
15143;DHT22;7672;50.834;6.286;2023-05-15T07:54:19;24.00;99.90
15143;DHT22;7672;50.834;6.286;2023-05-15T07:56:46;24.60;99.90
15143;DHT22;7672;50.834;6.286;2023-05-15T07:59:13;25.20;99.90
15143;DHT22;7672;50.834;6.286;2023-05-15T08:01:40;25.80;99.90
15143;DHT22;7672;50.834;6.286;2023-05-15T08:04:08;26.40;99.90
15143;DHT22;7672;50.834;6.286;2023-05-15T08:06:35;27.00;99.90
15143;DHT22;7672;50.834;6.286;2023-05-15T08:09:05;27.50;99.90
15143;DHT22;7672;50.834;6.286;2023-05-15T08:11:32;28.10;99.90
15143;DHT22;7672;50.834;6.286;2023-05-15T08:13:59;28.60;99.90
15143;DHT22;7672;50.834;6.286;2023-05-15T08:16:26;29.20;99.90
15143;DHT22;7672;50.834;6.286;2023-05-15T08:18:53;29.80;99.90
15143;DHT22;7672;50.834;6.286;2023-05-15T08:21:26;30.30;99.90
15143;DHT22;7672;50.834;6.286;2023-05-15T08:23:53;30.80;99.90
15143;DHT22;7672;50.834;6.286;2023-05-15T08:26:20;31.30;99.70
15143;DHT22;7672;50.834;6.286;2023-05-15T08:28:47;31.70;99.60
15143;DHT22;7672;50.834;6.286;2023-05-15T08:31:14;32.10;98.10
15143;DHT22;7672;50.834;6.286;2023-05-15T08:33:41;32.50;96.20
15143;DHT22;7672;50.834;6.286;2023-05-15T08:36:09;32.80;95.50
15143;DHT22;7672;50.834;6.286;2023-05-15T08:38:36;33.00;94.10
15143;DHT22;7672;50.834;6.286;2023-05-15T08:41:11;33.30;94.10
15143;DHT22;7672;50.834;6.286;2023-05-15T08:44:07;33.50;93.00
15143;DHT22;7672;50.834;6.286;2023-05-15T08:46:36;33.80;92.50
15143;DHT22;7672;50.834;6.286;2023-05-15T08:49:13;34.10;92.00
15143;DHT22;7672;50.834;6.286;2023-05-15T08:51:45;34.30;90.90
15143;DHT22;7672;50.834;6.286;2023-05-15T08:54:14;34.60;91.30
15143;DHT22;7672;50.834;6.286;2023-05-15T08:56:42;34.90;88.40
15143;DHT22;7672;50.834;6.286;2023-05-15T08:59:09;35.10;87.70
15143;DHT22;7672;50.834;6.286;2023-05-15T09:01:36;35.30;85.30
15143;DHT22;7672;50.834;6.286;2023-05-15T09:04:04;35.50;86.00
15143;DHT22;7672;50.834;6.286;2023-05-15T09:06:32;35.70;83.80
15143;DHT22;7672;50.834;6.286;2023-05-15T09:09:00;35.90;82.40
15143;DHT22;7672;50.834;6.286;2023-05-15T09:11:29;35.90;83.50
15143;DHT22;7672;50.834;6.286;2023-05-15T09:13:58;36.10;81.10
15143;DHT22;7672;50.834;6.286;2023-05-15T09:16:26;36.20;81.40
15143;DHT22;7672;50.834;6.286;2023-05-15T09:18:53;36.40;80.80
15143;DHT22;7672;50.834;6.286;2023-05-15T09:21:25;36.60;79.00
15143;DHT22;7672;50.834;6.286;2023-05-15T09:24:19;36.60;77.80
15143;DHT22;7672;50.834;6.286;2023-05-15T09:27:03;36.70;78.10
15143;DHT22;7672;50.834;6.286;2023-05-15T09:29:33;36.70;78.80
15143;DHT22;7672;50.834;6.286;2023-05-15T09:34:33;36.90;76.90
15143;DHT22;7672;50.834;6.286;2023-05-15T09:37:03;37.00;74.60
15143;DHT22;7672;50.834;6.286;2023-05-15T09:39:32;37.10;73.40
15143;DHT22;7672;50.834;6.286;2023-05-15T09:42:07;37.10;72.60
15143;DHT22;7672;50.834;6.286;2023-05-15T09:44:35;37.20;71.70
15143;DHT22;7672;50.834;6.286;2023-05-15T09:47:07;37.20;72.80
15143;DHT22;7672;50.834;6.286;2023-05-15T09:49:44;37.30;72.20
15143;DHT22;7672;50.834;6.286;2023-05-15T09:52:14;37.30;72.90
15143;DHT22;7672;50.834;6.286;2023-05-15T09:54:44;37.40;71.20
15143;DHT22;7672;50.834;6.286;2023-05-15T09:57:20;37.40;71.40
15143;DHT22;7672;50.834;6.286;2023-05-15T09:59:48;37.50;70.60
15143;DHT22;7672;50.834;6.286;2023-05-15T10:02:28;37.50;71.30
15143;DHT22;7672;50.834;6.286;2023-05-15T10:05:00;37.50;69.30
15143;DHT22;7672;50.834;6.286;2023-05-15T10:07:31;37.60;70.80
15143;DHT22;7672;50.834;6.286;2023-05-15T10:10:02;37.70;70.30
15143;DHT22;7672;50.834;6.286;2023-05-15T10:12:32;37.80;69.70
15143;DHT22;7672;50.834;6.286;2023-05-15T10:15:02;37.80;67.20
15143;DHT22;7672;50.834;6.286;2023-05-15T10:17:33;37.80;67.70
15143;DHT22;7672;50.834;6.286;2023-05-15T10:20:02;37.80;67.80
15143;DHT22;7672;50.834;6.286;2023-05-15T10:22:36;37.70;67.20
15143;DHT22;7672;50.834;6.286;2023-05-15T10:25:08;37.70;67.40
15143;DHT22;7672;50.834;6.286;2023-05-15T10:27:56;37.60;66.70
15143;DHT22;7672;50.834;6.286;2023-05-15T10:30:24;37.60;66.80
15143;DHT22;7672;50.834;6.286;2023-05-15T10:32:53;37.50;64.80
15143;DHT22;7672;50.834;6.286;2023-05-15T10:35:22;37.50;64.90
15143;DHT22;7672;50.834;6.286;2023-05-15T10:37:49;37.40;65.30
15143;DHT22;7672;50.834;6.286;2023-05-15T10:40:16;37.30;64.60
15143;DHT22;7672;50.834;6.286;2023-05-15T10:42:45;37.10;64.10
15143;DHT22;7672;50.834;6.286;2023-05-15T10:45:16;36.90;64.30
15143;DHT22;7672;50.834;6.286;2023-05-15T10:47:43;36.80;64.70
15143;DHT22;7672;50.834;6.286;2023-05-15T10:50:11;36.70;63.30
15143;DHT22;7672;50.834;6.286;2023-05-15T10:52:40;36.50;63.40
15143;DHT22;7672;50.834;6.286;2023-05-15T10:55:12;36.40;64.00
15143;DHT22;7672;50.834;6.286;2023-05-15T10:57:44;36.10;66.40
15143;DHT22;7672;50.834;6.286;2023-05-15T11:02:49;35.60;65.70
15143;DHT22;7672;50.834;6.286;2023-05-15T11:05:19;35.50;66.20
15143;DHT22;7672;50.834;6.286;2023-05-15T11:10:41;35.20;66.20
15143;DHT22;7672;50.834;6.286;2023-05-15T11:13:08;35.20;65.50
15143;DHT22;7672;50.834;6.286;2023-05-15T11:15:41;35.10;65.10
15143;DHT22;7672;50.834;6.286;2023-05-15T11:18:12;35.00;65.30
15143;DHT22;7672;50.834;6.286;2023-05-15T11:23:21;34.70;62.60
15143;DHT22;7672;50.834;6.286;2023-05-15T11:25:53;34.60;64.30
15143;DHT22;7672;50.834;6.286;2023-05-15T11:28:24;34.50;64.10
15143;DHT22;7672;50.834;6.286;2023-05-15T11:31:05;34.40;65.20
15143;DHT22;7672;50.834;6.286;2023-05-15T11:33:33;34.20;63.30
15143;DHT22;7672;50.834;6.286;2023-05-15T11:36:00;34.10;65.20
15143;DHT22;7672;50.834;6.286;2023-05-15T11:38:37;33.90;66.40
15143;DHT22;7672;50.834;6.286;2023-05-15T11:41:17;33.70;68.20
15143;DHT22;7672;50.834;6.286;2023-05-15T11:43:46;33.50;66.70
15143;DHT22;7672;50.834;6.286;2023-05-15T11:46:14;33.30;67.00
15143;DHT22;7672;50.834;6.286;2023-05-15T11:48:44;33.10;65.80
15143;DHT22;7672;50.834;6.286;2023-05-15T11:51:20;32.90;68.70
15143;DHT22;7672;50.834;6.286;2023-05-15T11:53:50;32.70;66.70
15143;DHT22;7672;50.834;6.286;2023-05-15T11:56:23;32.50;66.60
15143;DHT22;7672;50.834;6.286;2023-05-15T11:58:56;32.20;67.80
15143;DHT22;7672;50.834;6.286;2023-05-15T12:01:25;32.10;66.80
15143;DHT22;7672;50.834;6.286;2023-05-15T12:03:52;31.90;65.50
15143;DHT22;7672;50.834;6.286;2023-05-15T12:06:22;31.70;66.30
15143;DHT22;7672;50.834;6.286;2023-05-15T12:08:51;31.50;67.10
15143;DHT22;7672;50.834;6.286;2023-05-15T12:11:22;31.30;69.50
15143;DHT22;7672;50.834;6.286;2023-05-15T12:13:51;31.10;70.00
15143;DHT22;7672;50.834;6.286;2023-05-15T12:16:24;31.00;70.00
15143;DHT22;7672;50.834;6.286;2023-05-15T12:18:53;30.80;70.90
15143;DHT22;7672;50.834;6.286;2023-05-15T12:21:22;30.70;69.70
15143;DHT22;7672;50.834;6.286;2023-05-15T12:23:52;30.60;70.40
15143;DHT22;7672;50.834;6.286;2023-05-15T12:26:34;30.60;71.50
15143;DHT22;7672;50.834;6.286;2023-05-15T12:29:02;30.50;71.80
15143;DHT22;7672;50.834;6.286;2023-05-15T12:31:32;30.50;69.10
15143;DHT22;7672;50.834;6.286;2023-05-15T12:34:01;30.40;70.60
15143;DHT22;7672;50.834;6.286;2023-05-15T12:36:29;30.40;70.40
15143;DHT22;7672;50.834;6.286;2023-05-15T12:38:57;30.30;70.40
15143;DHT22;7672;50.834;6.286;2023-05-15T12:41:27;30.20;71.30
15143;DHT22;7672;50.834;6.286;2023-05-15T12:43:55;30.10;70.70
15143;DHT22;7672;50.834;6.286;2023-05-15T12:46:24;29.90;70.00
15143;DHT22;7672;50.834;6.286;2023-05-15T12:48:57;29.80;70.30
15143;DHT22;7672;50.834;6.286;2023-05-15T12:51:25;29.70;71.70
15143;DHT22;7672;50.834;6.286;2023-05-15T12:53:53;29.60;71.50
15143;DHT22;7672;50.834;6.286;2023-05-15T12:56:20;29.40;71.30
15143;DHT22;7672;50.834;6.286;2023-05-15T12:58:48;29.30;73.40
15143;DHT22;7672;50.834;6.286;2023-05-15T13:01:16;29.20;72.90
15143;DHT22;7672;50.834;6.286;2023-05-15T13:03:43;29.10;73.30
15143;DHT22;7672;50.834;6.286;2023-05-15T13:06:10;29.00;72.10
15143;DHT22;7672;50.834;6.286;2023-05-15T13:08:39;29.00;73.80
15143;DHT22;7672;50.834;6.286;2023-05-15T13:11:11;28.90;73.90
15143;DHT22;7672;50.834;6.286;2023-05-15T13:13:47;28.80;71.90
15143;DHT22;7672;50.834;6.286;2023-05-15T13:16:24;28.70;72.50
15143;DHT22;7672;50.834;6.286;2023-05-15T13:18:56;28.60;73.10
15143;DHT22;7672;50.834;6.286;2023-05-15T13:21:25;28.50;73.00
15143;DHT22;7672;50.834;6.286;2023-05-15T13:23:53;28.40;73.40
15143;DHT22;7672;50.834;6.286;2023-05-15T13:26:20;28.20;75.70
15143;DHT22;7672;50.834;6.286;2023-05-15T13:28:47;28.10;76.80
15143;DHT22;7672;50.834;6.286;2023-05-15T13:31:14;28.00;77.10
15143;DHT22;7672;50.834;6.286;2023-05-15T13:33:41;27.80;77.80
15143;DHT22;7672;50.834;6.286;2023-05-15T13:36:08;27.70;78.40
15143;DHT22;7672;50.834;6.286;2023-05-15T13:38:35;27.60;79.00
15143;DHT22;7672;50.834;6.286;2023-05-15T13:41:03;27.40;78.40
15143;DHT22;7672;50.834;6.286;2023-05-15T13:43:30;27.20;78.50
15143;DHT22;7672;50.834;6.286;2023-05-15T13:45:57;27.00;78.80
15143;DHT22;7672;50.834;6.286;2023-05-15T13:48:24;26.90;79.40
15143;DHT22;7672;50.834;6.286;2023-05-15T13:50:51;26.70;79.40
15143;DHT22;7672;50.834;6.286;2023-05-15T13:53:18;26.60;80.60
15143;DHT22;7672;50.834;6.286;2023-05-15T13:55:46;26.40;79.70
15143;DHT22;7672;50.834;6.286;2023-05-15T13:58:13;26.30;80.20
15143;DHT22;7672;50.834;6.286;2023-05-15T14:00:42;26.10;81.10
15143;DHT22;7672;50.834;6.286;2023-05-15T14:03:09;26.00;82.10
15143;DHT22;7672;50.834;6.286;2023-05-15T14:05:39;25.90;81.90
15143;DHT22;7672;50.834;6.286;2023-05-15T14:08:06;25.70;82.30
15143;DHT22;7672;50.834;6.286;2023-05-15T14:10:35;25.60;82.80
15143;DHT22;7672;50.834;6.286;2023-05-15T14:13:02;25.50;83.40
15143;DHT22;7672;50.834;6.286;2023-05-15T14:15:29;25.40;83.30
15143;DHT22;7672;50.834;6.286;2023-05-15T14:17:56;25.40;84.20
15143;DHT22;7672;50.834;6.286;2023-05-15T14:20:24;25.30;84.00
15143;DHT22;7672;50.834;6.286;2023-05-15T14:22:51;25.30;83.90
15143;DHT22;7672;50.834;6.286;2023-05-15T14:25:18;25.20;83.90
15143;DHT22;7672;50.834;6.286;2023-05-15T14:27:45;25.10;83.90
15143;DHT22;7672;50.834;6.286;2023-05-15T14:30:13;25.00;84.80
15143;DHT22;7672;50.834;6.286;2023-05-15T14:32:40;24.90;85.40
15143;DHT22;7672;50.834;6.286;2023-05-15T14:35:07;24.80;85.90
15143;DHT22;7672;50.834;6.286;2023-05-15T14:37:35;24.70;85.90
15143;DHT22;7672;50.834;6.286;2023-05-15T14:40:03;24.70;86.90
15143;DHT22;7672;50.834;6.286;2023-05-15T14:42:31;24.70;86.50
15143;DHT22;7672;50.834;6.286;2023-05-15T14:44:58;24.70;87.20
15143;DHT22;7672;50.834;6.286;2023-05-15T14:47:25;24.60;88.10
15143;DHT22;7672;50.834;6.286;2023-05-15T14:49:54;24.70;88.20
15143;DHT22;7672;50.834;6.286;2023-05-15T14:52:21;24.70;88.80
15143;DHT22;7672;50.834;6.286;2023-05-15T14:54:48;24.80;89.00
15143;DHT22;7672;50.834;6.286;2023-05-15T14:57:33;24.80;88.30
15143;DHT22;7672;50.834;6.286;2023-05-15T15:00:00;24.90;86.80
15143;DHT22;7672;50.834;6.286;2023-05-15T15:02:27;24.90;86.60
15143;DHT22;7672;50.834;6.286;2023-05-15T15:04:54;24.90;86.70
15143;DHT22;7672;50.834;6.286;2023-05-15T15:07:27;24.90;88.00
15143;DHT22;7672;50.834;6.286;2023-05-15T15:09:56;24.90;88.30
15143;DHT22;7672;50.834;6.286;2023-05-15T15:12:23;24.90;88.20
15143;DHT22;7672;50.834;6.286;2023-05-15T15:14:50;25.00;88.70
15143;DHT22;7672;50.834;6.286;2023-05-15T15:17:17;25.00;88.50
15143;DHT22;7672;50.834;6.286;2023-05-15T15:19:44;24.90;88.30
15143;DHT22;7672;50.834;6.286;2023-05-15T15:22:11;24.90;88.60
15143;DHT22;7672;50.834;6.286;2023-05-15T15:24:38;24.80;88.10
15143;DHT22;7672;50.834;6.286;2023-05-15T15:27:04;24.70;88.30
15143;DHT22;7672;50.834;6.286;2023-05-15T15:29:32;24.60;88.10
15143;DHT22;7672;50.834;6.286;2023-05-15T15:31:59;24.50;88.90
15143;DHT22;7672;50.834;6.286;2023-05-15T15:34:26;24.40;90.00
15143;DHT22;7672;50.834;6.286;2023-05-15T15:36:53;24.30;89.90
15143;DHT22;7672;50.834;6.286;2023-05-15T15:39:20;24.20;89.80
15143;DHT22;7672;50.834;6.286;2023-05-15T15:41:47;24.10;89.80
15143;DHT22;7672;50.834;6.286;2023-05-15T15:44:14;24.00;90.10
15143;DHT22;7672;50.834;6.286;2023-05-15T15:46:41;23.80;90.50
15143;DHT22;7672;50.834;6.286;2023-05-15T15:49:08;23.70;91.00
15143;DHT22;7672;50.834;6.286;2023-05-15T15:51:35;23.60;90.90
15143;DHT22;7672;50.834;6.286;2023-05-15T15:54:02;23.50;91.10
15143;DHT22;7672;50.834;6.286;2023-05-15T15:56:29;23.40;91.60
15143;DHT22;7672;50.834;6.286;2023-05-15T15:58:56;23.20;91.80
15143;DHT22;7672;50.834;6.286;2023-05-15T16:01:23;23.10;92.20
15143;DHT22;7672;50.834;6.286;2023-05-15T16:03:50;23.00;92.50
15143;DHT22;7672;50.834;6.286;2023-05-15T16:06:17;22.90;92.60
15143;DHT22;7672;50.834;6.286;2023-05-15T16:08:44;22.80;92.90
15143;DHT22;7672;50.834;6.286;2023-05-15T16:11:11;22.70;93.00
15143;DHT22;7672;50.834;6.286;2023-05-15T16:13:38;22.50;93.60
15143;DHT22;7672;50.834;6.286;2023-05-15T16:16:07;22.50;93.80
15143;DHT22;7672;50.834;6.286;2023-05-15T16:18:34;22.40;94.20
15143;DHT22;7672;50.834;6.286;2023-05-15T16:21:01;22.40;94.60
15143;DHT22;7672;50.834;6.286;2023-05-15T16:23:35;22.30;94.40
15143;DHT22;7672;50.834;6.286;2023-05-15T16:26:06;22.30;95.40